createdAt,value
2022-09-28T00:00:58.371Z,100.00
2022-09-28T00:03:27.999Z,100.00
2022-09-28T00:06:02.568Z,100.00
2022-09-28T00:08:31.864Z,100.00
2022-09-28T00:10:59.867Z,100.00
2022-09-28T00:13:28.152Z,100.00
2022-09-28T00:16:04.084Z,100.00
2022-09-28T00:18:32.408Z,100.00
2022-09-28T00:21:05.663Z,100.00
2022-09-28T00:23:35.593Z,100.00
2022-09-28T00:26:04.397Z,100.00
2022-09-28T00:28:32.468Z,100.00
2022-09-28T00:31:00.862Z,100.00
2022-09-28T00:33:29.280Z,100.00
2022-09-28T00:35:58.093Z,100.00
2022-09-28T00:38:28.929Z,100.00
2022-09-28T00:40:59.485Z,100.00
2022-09-28T00:43:27.999Z,100.00
2022-09-28T00:46:00.187Z,100.00
2022-09-28T00:48:33.331Z,100.00
2022-09-28T00:51:05.553Z,100.00
2022-09-28T00:53:36.419Z,100.00
2022-09-28T00:56:09.134Z,100.00
2022-09-28T00:58:40.520Z,100.00
2022-09-28T01:01:08.720Z,100.00
2022-09-28T01:03:38.643Z,100.00
2022-09-28T01:06:09.272Z,100.00
2022-09-28T01:08:38.219Z,100.00
2022-09-28T01:11:07.422Z,100.00
2022-09-28T01:13:35.353Z,100.00
2022-09-28T01:16:14.025Z,100.00
2022-09-28T01:18:53.896Z,100.00
2022-09-28T01:21:23.257Z,100.00
2022-09-28T01:24:15.298Z,100.00
2022-09-28T01:26:50.736Z,100.00
2022-09-28T01:29:27.663Z,100.00
2022-09-28T01:32:06.417Z,100.00
2022-09-28T01:34:42.261Z,100.00
2022-09-28T01:37:15.007Z,100.00
2022-09-28T01:39:46.828Z,100.00
2022-09-28T01:42:19.774Z,100.00
2022-09-28T01:44:51.458Z,100.00
2022-09-28T01:47:23.156Z,100.00
2022-09-28T01:49:56.173Z,100.00
2022-09-28T01:52:29.534Z,100.00
2022-09-28T01:55:03.648Z,100.00
2022-09-28T01:57:40.519Z,100.00
2022-09-28T02:00:11.753Z,100.00
2022-09-28T02:02:46.666Z,100.00
2022-09-28T02:05:19.188Z,100.00
2022-09-28T02:07:53.781Z,100.00
2022-09-28T02:10:25.680Z,100.00
2022-09-28T02:13:00.105Z,100.00
2022-09-28T02:15:34.025Z,100.00
2022-09-28T02:18:02.048Z,100.00
2022-09-28T02:20:33.210Z,100.00
2022-09-28T02:23:03.755Z,100.00
2022-09-28T02:25:39.200Z,100.00
2022-09-28T02:28:11.350Z,100.00
2022-09-28T02:30:41.426Z,100.00
2022-09-28T02:33:13.912Z,100.00
2022-09-28T02:35:43.714Z,100.00
2022-09-28T02:38:12.871Z,100.00
2022-09-28T02:40:41.809Z,100.00
2022-09-28T02:43:19.402Z,100.00
2022-09-28T02:45:57.109Z,100.00
2022-09-28T02:48:47.210Z,100.00
2022-09-28T02:51:28.062Z,100.00
2022-09-28T02:54:17.976Z,100.00
2022-09-28T02:57:06.980Z,100.00
2022-09-28T02:59:48.549Z,100.00
2022-09-28T03:02:26.109Z,100.00
2022-09-28T03:05:07.146Z,100.00
2022-09-28T03:07:37.851Z,100.00
2022-09-28T03:10:14.754Z,100.00
2022-09-28T03:12:45.986Z,100.00
2022-09-28T03:15:22.918Z,100.00
2022-09-28T03:17:51.278Z,100.00
2022-09-28T03:20:19.449Z,100.00
2022-09-28T03:23:06.013Z,100.00
2022-09-28T03:25:34.989Z,100.00
2022-09-28T03:28:03.109Z,100.00
2022-09-28T03:30:35.804Z,100.00
2022-09-28T03:33:04.297Z,100.00
2022-09-28T03:35:33.529Z,100.00
2022-09-28T03:38:01.293Z,100.00
2022-09-28T03:40:31.310Z,100.00
2022-09-28T03:42:59.904Z,100.00
2022-09-28T03:45:27.808Z,100.00
2022-09-28T03:47:56.994Z,100.00
2022-09-28T03:50:24.814Z,100.00
2022-09-28T03:52:52.678Z,100.00
2022-09-28T03:55:20.423Z,100.00
2022-09-28T03:57:54.829Z,100.00
2022-09-28T04:00:22.934Z,100.00
2022-09-28T04:02:50.869Z,100.00
2022-09-28T04:05:19.939Z,100.00
2022-09-28T04:07:48.782Z,100.00
2022-09-28T04:10:16.579Z,100.00
2022-09-28T04:12:44.752Z,100.00
2022-09-28T04:15:12.479Z,100.00
2022-09-28T04:17:40.440Z,100.00
2022-09-28T04:20:15.597Z,100.00
2022-09-28T04:23:01.345Z,100.00
2022-09-28T04:25:29.920Z,100.00
2022-09-28T04:28:15.874Z,100.00
2022-09-28T04:30:43.667Z,100.00
2022-09-28T04:33:12.110Z,100.00
2022-09-28T04:35:39.817Z,100.00
2022-09-28T04:38:08.974Z,100.00
2022-09-28T04:40:37.088Z,100.00
2022-09-28T04:43:05.169Z,100.00
2022-09-28T04:45:33.270Z,100.00
2022-09-28T04:48:09.010Z,100.00
2022-09-28T04:51:01.555Z,100.00
2022-09-28T04:53:31.545Z,100.00
2022-09-28T04:56:01.764Z,100.00
2022-09-28T04:58:32.087Z,100.00
2022-09-28T05:01:01.918Z,100.00
2022-09-28T05:03:48.054Z,100.00
2022-09-28T05:06:40.015Z,100.00
2022-09-28T05:09:10.322Z,100.00
2022-09-28T05:11:38.096Z,100.00
2022-09-28T05:14:12.448Z,100.00
2022-09-28T05:16:40.991Z,100.00
2022-09-28T05:19:26.873Z,100.00
2022-09-28T05:22:03.942Z,100.00
2022-09-28T05:24:37.799Z,100.00
2022-09-28T05:27:05.875Z,100.00
2022-09-28T05:29:33.643Z,100.00
2022-09-28T05:32:33.237Z,100.00
2022-09-28T05:35:22.713Z,100.00
2022-09-28T05:37:50.522Z,100.00
2022-09-28T05:40:19.860Z,100.00
2022-09-28T05:42:48.798Z,100.00
2022-09-28T05:45:16.757Z,100.00
2022-09-28T05:47:47.065Z,100.00
2022-09-28T05:50:18.877Z,100.00
2022-09-28T05:52:47.499Z,100.00
2022-09-28T05:55:15.507Z,100.00
2022-09-28T05:57:44.569Z,100.00
2022-09-28T06:00:13.239Z,100.00
2022-09-28T06:02:42.358Z,100.00
2022-09-28T06:05:12.780Z,100.00
2022-09-28T06:07:40.497Z,100.00
2022-09-28T06:10:09.093Z,100.00
2022-09-28T06:12:48.591Z,100.00
2022-09-28T06:15:17.421Z,100.00
2022-09-28T06:17:46.621Z,100.00
2022-09-28T06:20:52.676Z,100.00
2022-09-28T06:23:30.967Z,100.00
2022-09-28T06:26:00.656Z,100.00
2022-09-28T06:28:29.726Z,100.00
2022-09-28T06:30:57.567Z,100.00
2022-09-28T06:33:26.730Z,100.00
2022-09-28T06:35:54.569Z,100.00
2022-09-28T06:38:22.500Z,100.00
2022-09-28T06:40:50.632Z,100.00
2022-09-28T06:43:18.892Z,100.00
2022-09-28T06:46:07.888Z,100.00
2022-09-28T06:48:38.569Z,100.00
2022-09-28T06:51:09.096Z,100.00
2022-09-28T06:53:47.585Z,100.00
2022-09-28T06:56:22.591Z,100.00
2022-09-28T06:58:50.571Z,100.00
2022-09-28T07:01:19.993Z,100.00
2022-09-28T07:04:05.214Z,100.00
2022-09-28T07:06:55.869Z,100.00
2022-09-28T07:09:46.444Z,100.00
2022-09-28T07:12:26.232Z,100.00
2022-09-28T07:14:57.583Z,100.00
2022-09-28T07:17:29.551Z,100.00
2022-09-28T07:20:10.386Z,100.00
2022-09-28T07:22:43.894Z,100.00
2022-09-28T07:25:17.665Z,100.00
2022-09-28T07:28:09.399Z,100.00
2022-09-28T07:30:58.102Z,100.00
2022-09-28T07:33:53.777Z,100.00
2022-09-28T07:36:29.844Z,100.00
2022-09-28T07:38:58.691Z,99.93
2022-09-28T07:41:32.477Z,99.56
2022-09-28T07:44:05.339Z,98.78
2022-09-28T07:46:36.819Z,98.38
2022-09-28T07:49:40.441Z,97.91
2022-09-28T07:52:37.366Z,97.22
2022-09-28T07:55:15.787Z,96.66
2022-09-28T07:58:12.899Z,96.88
2022-09-28T08:01:08.847Z,97.72
2022-09-28T08:03:40.186Z,97.50
2022-09-28T08:06:12.554Z,97.36
2022-09-28T08:08:44.530Z,97.16
2022-09-28T08:11:15.005Z,95.40
2022-09-28T08:14:02.207Z,96.95
2022-09-28T08:17:08.816Z,94.49
2022-09-28T08:20:00.634Z,94.17
2022-09-28T08:22:32.176Z,93.38
2022-09-28T08:25:00.888Z,92.43
2022-09-28T08:27:29.966Z,91.61
2022-09-28T08:29:57.822Z,91.56
2022-09-28T08:32:49.177Z,89.54
2022-09-28T08:35:40.922Z,87.41
2022-09-28T08:38:15.717Z,88.46
2022-09-28T08:41:10.610Z,87.69
2022-09-28T08:44:02.937Z,88.64
2022-09-28T08:46:58.234Z,89.21
2022-09-28T08:49:52.519Z,89.30
2022-09-28T08:52:52.351Z,90.00
2022-09-28T08:55:47.985Z,89.89
2022-09-28T08:58:21.303Z,86.67
2022-09-28T09:00:51.319Z,87.57
2022-09-28T09:03:24.444Z,86.12
2022-09-28T09:06:21.109Z,85.12
2022-09-28T09:09:04.121Z,84.13
2022-09-28T09:11:51.626Z,84.90
2022-09-28T09:14:39.991Z,84.54
2022-09-28T09:17:19.056Z,85.93
2022-09-28T09:20:17.043Z,86.46
2022-09-28T09:22:59.666Z,85.44
2022-09-28T09:25:38.422Z,85.22
2022-09-28T09:28:35.246Z,82.62
2022-09-28T09:31:14.364Z,84.32
2022-09-28T09:34:13.588Z,81.46
2022-09-28T09:37:06.308Z,83.10
2022-09-28T09:40:09.197Z,80.90
2022-09-28T09:43:29.487Z,79.52
2022-09-28T09:46:33.371Z,80.50
2022-09-28T09:49:20.653Z,80.48
2022-09-28T09:51:53.565Z,79.36
2022-09-28T09:54:27.740Z,76.67
2022-09-28T09:57:03.585Z,76.75
2022-09-28T09:59:49.397Z,75.35
2022-09-28T10:02:43.279Z,76.09
2022-09-28T10:05:36.958Z,75.87
2022-09-28T10:08:13.802Z,75.65
2022-09-28T10:10:50.093Z,76.10
2022-09-28T10:13:20.091Z,74.87
2022-09-28T10:15:50.408Z,76.06
2022-09-28T10:18:42.671Z,73.77
2022-09-28T10:21:51.756Z,72.08
2022-09-28T10:24:31.272Z,72.30
2022-09-28T10:27:05.317Z,71.35
2022-09-28T10:29:43.241Z,72.09
2022-09-28T10:32:21.288Z,71.36
2022-09-28T10:34:51.943Z,70.72
2022-09-28T10:37:24.259Z,70.43
2022-09-28T10:40:30.238Z,72.43
2022-09-28T10:43:02.347Z,72.08
2022-09-28T10:45:37.125Z,71.75
2022-09-28T10:48:14.319Z,73.14
2022-09-28T10:50:43.837Z,71.69
2022-09-28T10:53:20.426Z,72.94
2022-09-28T10:56:21.662Z,71.66
2022-09-28T10:58:54.605Z,68.67
2022-09-28T11:01:35.604Z,69.53
2022-09-28T11:04:07.999Z,63.55
2022-09-28T11:06:40.157Z,58.15
2022-09-28T11:09:30.989Z,56.58
2022-09-28T11:12:06.072Z,53.57
2022-09-28T11:14:41.276Z,53.91
2022-09-28T11:17:16.474Z,53.05
2022-09-28T11:19:46.715Z,53.39
2022-09-28T11:22:36.814Z,50.83
2022-09-28T11:25:22.259Z,48.41
2022-09-28T11:27:58.895Z,48.91
2022-09-28T11:30:31.021Z,52.52
2022-09-28T11:33:24.206Z,55.20
2022-09-28T11:36:32.035Z,55.23
2022-09-28T11:39:11.145Z,55.93
2022-09-28T11:42:01.089Z,56.47
2022-09-28T11:44:46.291Z,55.50
2022-09-28T11:47:44.440Z,56.66
2022-09-28T11:50:24.612Z,58.34
2022-09-28T11:53:05.438Z,58.11
2022-09-28T11:55:39.651Z,60.00
2022-09-28T11:58:13.840Z,60.55
2022-09-28T12:00:48.968Z,61.53
2022-09-28T12:03:21.937Z,61.29
2022-09-28T12:05:53.563Z,62.43
2022-09-28T12:08:27.330Z,62.08
2022-09-28T12:11:09.671Z,62.10
2022-09-28T12:14:21.410Z,62.57
2022-09-28T12:17:10.984Z,60.63
2022-09-28T12:19:43.488Z,61.01
2022-09-28T12:22:17.075Z,61.59
2022-09-28T12:24:48.746Z,59.34
2022-09-28T12:27:25.353Z,60.36
2022-09-28T12:29:58.128Z,60.88
2022-09-28T12:32:32.337Z,59.08
2022-09-28T12:35:00.150Z,59.37
2022-09-28T12:37:42.723Z,60.03
2022-09-28T12:40:32.578Z,60.62
2022-09-28T12:43:11.856Z,62.41
2022-09-28T12:46:11.119Z,61.10
2022-09-28T12:50:20.179Z,61.39
2022-09-28T12:52:00.059Z,60.56
2022-09-28T12:54:53.194Z,60.87
2022-09-28T12:57:43.535Z,61.50
2022-09-28T13:00:16.352Z,61.84
2022-09-28T13:03:16.851Z,61.37
2022-09-28T13:06:15.196Z,61.97
2022-09-28T13:08:53.256Z,62.42
2022-09-28T13:11:31.889Z,63.59
2022-09-28T13:14:21.508Z,63.28
2022-09-28T13:17:00.865Z,64.03
2022-09-28T13:19:38.878Z,64.78
2022-09-28T13:22:23.781Z,62.66
2022-09-28T13:24:55.719Z,64.12
2022-09-28T13:27:32.814Z,64.71
2022-09-28T13:30:03.586Z,63.96
2022-09-28T13:32:34.395Z,63.68
2022-09-28T13:35:03.053Z,63.28
2022-09-28T13:37:30.824Z,63.90
2022-09-28T13:39:59.632Z,64.00
2022-09-28T13:43:06.726Z,64.04
2022-09-28T13:45:53.682Z,65.24
2022-09-28T13:48:26.364Z,63.87
2022-09-28T13:51:19.901Z,64.19
2022-09-28T13:54:13.592Z,65.74
2022-09-28T13:56:50.713Z,64.28
2022-09-28T13:59:24.747Z,65.98
2022-09-28T14:01:57.348Z,64.94
2022-09-28T14:04:48.080Z,65.67
2022-09-28T14:07:21.349Z,66.31
2022-09-28T14:10:08.776Z,64.85
2022-09-28T14:12:54.987Z,63.99
2022-09-28T14:15:45.911Z,64.41
2022-09-28T14:18:23.408Z,64.18
2022-09-28T14:21:03.989Z,65.36
2022-09-28T14:24:19.254Z,64.25
2022-09-28T14:27:08.528Z,64.75
2022-09-28T14:29:38.149Z,62.71
2022-09-28T14:32:22.380Z,62.65
2022-09-28T14:34:57.747Z,62.44
2022-09-28T14:37:48.563Z,62.48
2022-09-28T14:40:39.999Z,63.80
2022-09-28T14:43:24.677Z,62.78
2022-09-28T14:46:10.825Z,61.94
2022-09-28T14:48:48.937Z,60.82
2022-09-28T14:51:45.724Z,61.30
2022-09-28T14:54:20.375Z,60.56
2022-09-28T14:56:58.915Z,60.16
2022-09-28T14:59:29.479Z,61.16
2022-09-28T15:02:01.341Z,62.04
2022-09-28T15:04:31.753Z,63.13
2022-09-28T15:06:59.997Z,63.25
2022-09-28T15:09:29.688Z,62.73
2022-09-28T15:12:01.343Z,62.87
2022-09-28T15:14:31.897Z,62.51
2022-09-28T15:17:03.438Z,62.76
2022-09-28T15:19:39.520Z,63.03
2022-09-28T15:22:15.806Z,64.76
2022-09-28T15:24:59.944Z,62.63
2022-09-28T15:27:35.858Z,63.73
2022-09-28T15:30:20.087Z,63.83
2022-09-28T15:32:47.779Z,64.29
2022-09-28T15:35:20.559Z,64.30
2022-09-28T15:37:52.015Z,64.39
2022-09-28T15:40:29.896Z,63.29
2022-09-28T15:42:59.433Z,63.72
2022-09-28T15:45:31.949Z,64.51
2022-09-28T15:48:20.851Z,64.03
2022-09-28T15:50:59.925Z,64.11
2022-09-28T15:53:28.303Z,65.67
2022-09-28T15:56:01.895Z,64.90
2022-09-28T15:58:30.271Z,65.92
2022-09-28T16:01:21.459Z,67.10
2022-09-28T16:03:49.498Z,64.40
2022-09-28T16:06:17.532Z,64.09
2022-09-28T16:08:48.469Z,65.06
2022-09-28T16:11:21.700Z,69.03
2022-09-28T16:14:01.619Z,72.54
2022-09-28T16:16:32.054Z,72.65
2022-09-28T16:19:02.036Z,74.97
2022-09-28T16:21:43.775Z,77.18
2022-09-28T16:24:21.269Z,79.71
2022-09-28T16:26:57.937Z,80.36
2022-09-28T16:29:28.703Z,80.87
2022-09-28T16:31:56.589Z,83.70
2022-09-28T16:34:27.133Z,86.30
2022-09-28T16:36:55.408Z,84.92
2022-09-28T16:39:23.097Z,84.16
2022-09-28T16:41:56.708Z,84.21
2022-09-28T16:44:27.282Z,86.51
2022-09-28T16:46:58.423Z,87.15
2022-09-28T16:49:26.714Z,85.04
2022-09-28T16:51:54.833Z,84.54
2022-09-28T16:54:41.501Z,84.61
2022-09-28T16:57:12.765Z,85.15
2022-09-28T16:59:40.650Z,85.47
2022-09-28T17:02:45.060Z,88.19
2022-09-28T17:05:08.557Z,88.06
2022-09-28T17:07:36.459Z,89.17
2022-09-28T17:10:04.568Z,90.52
2022-09-28T17:12:33.627Z,88.33
2022-09-28T17:15:01.352Z,85.52
2022-09-28T17:17:31.407Z,87.10
2022-09-28T17:19:59.301Z,87.34
2022-09-28T17:22:27.065Z,87.44
2022-09-28T17:24:54.770Z,86.72
2022-09-28T17:27:22.703Z,88.23
2022-09-28T17:29:54.415Z,88.17
2022-09-28T17:32:22.113Z,87.27
2022-09-28T17:35:00.856Z,88.79
2022-09-28T17:37:36.108Z,87.08
2022-09-28T17:40:08.444Z,88.15
2022-09-28T17:42:36.575Z,86.53
2022-09-28T17:45:06.488Z,87.76
2022-09-28T17:47:34.591Z,87.53
2022-09-28T17:50:02.417Z,86.91
2022-09-28T17:52:30.349Z,87.96
2022-09-28T17:54:58.145Z,90.27
2022-09-28T17:57:26.057Z,88.96
2022-09-28T17:59:54.117Z,87.17
2022-09-28T18:02:25.088Z,87.56
2022-09-28T18:04:53.279Z,87.64
2022-09-28T18:07:21.498Z,89.36
2022-09-28T18:09:56.561Z,89.80
2022-09-28T18:12:25.120Z,90.29
2022-09-28T18:14:54.405Z,91.51
2022-09-28T18:17:23.740Z,91.61
2022-09-28T18:19:51.515Z,91.54
2022-09-28T18:22:19.380Z,92.25
2022-09-28T18:24:47.438Z,92.55
2022-09-28T18:27:15.196Z,92.48
2022-09-28T18:29:43.112Z,93.54
2022-09-28T18:32:10.886Z,94.15
2022-09-28T18:34:40.031Z,94.08
2022-09-28T18:37:07.770Z,94.52
2022-09-28T18:39:36.227Z,94.46
2022-09-28T18:42:04.115Z,95.60
2022-09-28T18:44:31.993Z,96.20
2022-09-28T18:47:02.204Z,96.85
2022-09-28T18:49:33.500Z,97.54
2022-09-28T18:52:03.424Z,97.71
2022-09-28T18:54:31.141Z,97.66
2022-09-28T18:56:58.863Z,98.42
2022-09-28T18:59:26.658Z,98.11
2022-09-28T19:01:54.521Z,98.28
2022-09-28T19:04:22.611Z,99.30
2022-09-28T19:06:52.314Z,99.82
2022-09-28T19:09:24.579Z,100.00
2022-09-28T19:11:52.560Z,100.00
2022-09-28T19:14:20.492Z,100.00
2022-09-28T19:16:48.220Z,100.00
2022-09-28T19:19:18.262Z,100.00
2022-09-28T19:21:47.612Z,100.00
2022-09-28T19:24:17.141Z,100.00
2022-09-28T19:26:47.335Z,100.00
2022-09-28T19:29:15.643Z,100.00
2022-09-28T19:31:44.236Z,100.00
2022-09-28T19:34:14.193Z,100.00
2022-09-28T19:36:43.209Z,100.00
2022-09-28T19:39:14.681Z,100.00
2022-09-28T19:41:49.445Z,100.00
2022-09-28T19:44:23.079Z,100.00
2022-09-28T19:46:51.624Z,100.00
2022-09-28T19:49:21.106Z,100.00
2022-09-28T19:54:38.412Z,100.00
2022-09-28T19:57:08.483Z,100.00
2022-09-28T19:59:37.029Z,100.00
2022-09-28T20:02:05.758Z,100.00
2022-09-28T20:04:33.588Z,100.00
2022-09-28T20:07:01.780Z,100.00
2022-09-28T20:09:29.623Z,100.00
2022-09-28T20:11:57.603Z,100.00
2022-09-28T20:14:32.835Z,100.00
2022-09-28T20:17:01.936Z,100.00
2022-09-28T20:19:29.664Z,100.00
2022-09-28T20:21:59.374Z,100.00
2022-09-28T20:24:28.762Z,100.00
2022-09-28T20:26:56.829Z,100.00
2022-09-28T20:29:26.592Z,100.00
2022-09-28T20:31:54.340Z,100.00
2022-09-28T20:34:22.124Z,100.00
2022-09-28T20:36:49.827Z,100.00
2022-09-28T20:39:17.681Z,100.00
2022-09-28T20:41:47.097Z,100.00
2022-09-28T20:44:14.953Z,100.00
2022-09-28T20:46:44.442Z,100.00
2022-09-28T20:49:12.333Z,100.00
2022-09-28T20:51:40.229Z,100.00
2022-09-28T20:54:08.241Z,100.00
2022-09-28T20:56:38.186Z,100.00
2022-09-28T20:59:07.653Z,100.00
2022-09-28T21:01:35.704Z,100.00
2022-09-28T21:04:06.555Z,100.00
2022-09-28T21:06:36.446Z,100.00
2022-09-28T21:09:05.808Z,100.00
2022-09-28T21:11:35.372Z,100.00
2022-09-28T21:14:05.959Z,100.00
2022-09-28T21:16:35.819Z,100.00
2022-09-28T21:19:05.353Z,100.00
2022-09-28T21:21:33.246Z,100.00
2022-09-28T21:24:01.975Z,100.00
2022-09-28T21:26:31.112Z,100.00
2022-09-28T21:29:00.259Z,100.00
2022-09-28T21:31:31.330Z,100.00
2022-09-28T21:33:59.991Z,100.00
2022-09-28T21:36:29.185Z,100.00
2022-09-28T21:38:57.255Z,100.00
2022-09-28T21:41:25.054Z,100.00
2022-09-28T21:43:52.997Z,100.00
2022-09-28T21:46:20.715Z,100.00
2022-09-28T21:48:52.527Z,100.00
2022-09-28T21:51:20.600Z,100.00
2022-09-28T21:53:50.300Z,100.00
2022-09-28T21:56:18.518Z,100.00
2022-09-28T21:58:46.619Z,100.00
2022-09-28T22:01:19.342Z,100.00
2022-09-28T22:03:48.940Z,100.00
2022-09-28T22:06:18.475Z,100.00
2022-09-28T22:08:46.631Z,100.00
2022-09-28T22:11:18.133Z,100.00
2022-09-28T22:13:49.269Z,100.00
2022-09-28T22:16:19.680Z,100.00
2022-09-28T22:18:48.420Z,100.00
2022-09-28T22:21:20.705Z,100.00
2022-09-28T22:23:49.740Z,100.00
2022-09-28T22:26:21.522Z,100.00
2022-09-28T22:28:50.935Z,100.00
2022-09-28T22:31:20.577Z,100.00
2022-09-28T22:33:48.661Z,100.00
2022-09-28T22:36:17.095Z,100.00
2022-09-28T22:38:45.234Z,100.00
2022-09-28T22:41:14.470Z,100.00
2022-09-28T22:43:44.275Z,100.00
2022-09-28T22:46:13.818Z,100.00
2022-09-28T22:48:42.224Z,100.00
2022-09-28T22:51:10.102Z,100.00
2022-09-28T22:53:38.217Z,100.00
2022-09-28T22:56:07.889Z,100.00
2022-09-28T22:58:36.982Z,100.00
2022-09-28T23:01:10.706Z,100.00
2022-09-28T23:03:40.370Z,100.00
2022-09-28T23:06:09.130Z,100.00
2022-09-28T23:08:36.875Z,100.00
2022-09-28T23:11:05.320Z,100.00
2022-09-28T23:13:33.082Z,100.00
2022-09-28T23:16:03.126Z,100.00
2022-09-28T23:18:33.983Z,100.00
2022-09-28T23:21:03.624Z,100.00
2022-09-28T23:23:31.316Z,100.00
2022-09-28T23:25:59.524Z,100.00
2022-09-28T23:28:28.052Z,100.00
2022-09-28T23:30:55.922Z,100.00
2022-09-28T23:33:23.694Z,100.00
2022-09-28T23:35:52.759Z,100.00
2022-09-28T23:38:20.537Z,100.00
2022-09-28T23:40:48.697Z,100.00
2022-09-28T23:43:16.449Z,100.00
2022-09-28T23:45:44.817Z,100.00
2022-09-28T23:48:14.885Z,100.00
2022-09-28T23:50:43.121Z,100.00
2022-09-28T23:53:13.601Z,100.00
2022-09-28T23:55:42.506Z,100.00
2022-09-28T23:58:10.233Z,100.00
